Time;durP1;ratioP1;P1;durP2;ratioP2;P2;SDS_P1;SDS_P2;PMS_P1;PMS_P2;Temp;Humidity;BMP_temperature;BMP_pressure;BME280_temperature;BME280_humidity;BME280_pressure;Samples;Min_cycle;Max_cycle;Signal;HPM_P1;HPM_P2
2022/12/01 00:00:23;;;;;;;9.27;6.97;;;;;;;6.62;100.00;102403.00;2071348;28;20235;-62
2022/12/01 00:01:24;;;;;;;7.53;6.70;;;;;;;6.48;100.00;102388.97;2072320;28;20540;-62
2022/12/01 00:02:24;;;;;;;7.37;6.67;;;;;;;6.39;100.00;102409.59;2072392;28;20193;-62
2022/12/01 00:03:25;;;;;;;7.67;6.63;;;;;;;6.61;100.00;102406.13;2071846;28;20277;-63
2022/12/01 00:04:25;;;;;;;9.00;7.13;;;;;;;6.66;100.00;102408.59;2072123;28;20539;-61
2022/12/01 00:05:26;;;;;;;8.43;6.93;;;;;;;6.28;100.00;102346.03;2071860;28;20193;-62
2022/12/01 00:06:26;;;;;;;7.87;6.80;;;;;;;6.72;100.00;102398.88;2072214;28;20232;-61
2022/12/01 00:07:27;;;;;;;9.67;7.43;;;;;;;6.72;100.00;102407.16;2071934;28;20283;-61
2022/12/01 00:08:28;;;;;;;7.60;6.53;;;;;;;6.78;100.00;102406.50;2071719;28;20189;-62
2022/12/01 00:10:47;;;;;;;9.00;7.25;;;;;;;6.66;100.00;102403.09;2071909;28;20639;-63
2022/12/01 00:11:48;;;;;;;7.87;6.87;;;;;;;6.55;100.00;102402.06;2072047;28;20610;-61
2022/12/01 00:12:48;;;;;;;9.07;6.87;;;;;;;6.49;100.00;102398.00;2071800;28;20197;-63
2022/12/01 00:13:49;;;;;;;9.53;7.70;;;;;;;6.50;100.00;102394.88;2071755;28;20219;-61
2022/12/01 00:14:53;;;;;;;8.67;7.30;;;;;;;6.53;100.00;102398.88;2072345;28;20213;-61
2022/12/01 00:15:54;;;;;;;8.10;6.97;;;;;;;6.60;100.00;102393.50;2071706;28;20185;-62
2022/12/01 00:16:54;;;;;;;9.00;7.33;;;;;;;6.41;100.00;102358.50;2072125;28;20193;-62
2022/12/01 00:17:56;;;;;;;8.00;7.03;;;;;;;6.29;100.00;102353.13;2071521;28;20216;-61
2022/12/01 00:18:57;;;;;;;8.23;7.03;;;;;;;6.70;100.00;102401.19;2071902;28;20631;-63
2022/12/01 00:19:57;;;;;;;7.57;6.77;;;;;;;6.54;100.00;102390.25;2071421;28;20578;-61
2022/12/01 00:20:58;;;;;;;9.30;7.00;;;;;;;6.48;100.00;102399.97;2072124;28;20280;-62
2022/12/01 00:21:58;;;;;;;7.77;6.90;;;;;;;6.47;100.00;102397.56;2072053;28;21407;-61
2022/12/01 00:22:59;;;;;;;8.30;6.93;;;;;;;6.45;100.00;102410.88;2071323;28;20541;-61
2022/12/01 00:24:00;;;;;;;10.68;7.88;;;;;;;6.42;100.00;102403.38;2071855;28;20205;-62
2022/12/01 00:25:00;;;;;;;8.57;7.60;;;;;;;6.50;100.00;102399.59;2071914;28;20280;-63
2022/12/01 00:26:05;;;;;;;8.10;7.20;;;;;;;6.60;100.00;102407.28;2072178;28;20234;-62
2022/12/01 00:27:05;;;;;;;8.82;7.50;;;;;;;6.66;100.00;102406.63;2071755;28;20206;-62
2022/12/01 00:28:05;;;;;;;8.83;7.80;;;;;;;6.70;100.00;102406.69;2071616;28;20198;-63
2022/12/01 00:29:06;;;;;;;7.87;7.07;;;;;;;6.55;100.00;102369.81;2072313;28;20668;-62
2022/12/01 00:30:09;;;;;;;8.97;7.60;;;;;;;6.77;100.00;102406.84;2072035;28;20201;-62
2022/12/01 00:31:11;;;;;;;9.77;7.35;;;;;;;6.82;100.00;102404.59;2070927;28;20197;-62
2022/12/01 00:32:12;;;;;;;9.07;7.03;;;;;;;6.84;100.00;102401.47;2071809;28;20201;-62
2022/12/01 00:33:13;;;;;;;9.15;7.40;;;;;;;6.88;100.00;102405.88;2071641;28;20207;-63
2022/12/01 00:34:23;;;;;;;8.17;7.10;;;;;;;6.95;100.00;102394.19;2071664;28;20206;-62
2022/12/01 00:35:23;;;;;;;8.95;7.35;;;;;;;6.98;100.00;102399.00;2071671;28;20286;-62
2022/12/01 00:36:24;;;;;;;9.17;6.93;;;;;;;6.98;100.00;102402.53;2072033;28;20651;-61
2022/12/01 00:37:25;;;;;;;8.70;7.50;;;;;;;6.99;100.00;102393.13;2071389;28;20182;-62
2022/12/01 00:38:26;;;;;;;9.10;7.13;;;;;;;6.60;100.00;102349.44;2071485;28;20200;-62
2022/12/01 00:39:26;;;;;;;8.13;6.90;;;;;;;6.99;100.00;102395.06;2072004;28;20188;-63
2022/12/01 00:40:26;;;;;;;9.10;7.57;;;;;;;7.00;100.00;102397.47;2071431;28;20205;-62
2022/12/01 00:41:27;;;;;;;8.37;6.87;;;;;;;7.01;100.00;102393.53;2071260;28;20190;-63
2022/12/01 00:42:27;;;;;;;9.33;7.43;;;;;;;7.02;100.00;102397.09;2071821;28;20580;-62
2022/12/01 00:43:28;;;;;;;9.90;7.17;;;;;;;7.01;100.00;102395.50;2070932;28;20205;-62
2022/12/01 00:44:28;;;;;;;8.57;7.23;;;;;;;7.03;100.00;102396.72;2070960;28;20276;-62
2022/12/01 00:45:29;;;;;;;9.60;7.57;;;;;;;7.06;100.00;102392.44;2071476;28;20292;-62
2022/12/01 00:46:29;;;;;;;8.43;7.40;;;;;;;7.05;100.00;102386.16;2071983;28;20178;-62
2022/12/01 00:47:29;;;;;;;8.57;7.10;;;;;;;7.06;100.00;102389.69;2072063;28;20667;-62
2022/12/01 00:48:30;;;;;;;8.93;7.47;;;;;;;7.06;100.00;102384.16;2071523;28;20740;-62
2022/12/01 00:49:30;;;;;;;9.40;6.80;;;;;;;7.05;100.00;102386.16;2071549;28;20284;-62
2022/12/01 00:50:31;;;;;;;9.57;7.40;;;;;;;7.08;100.00;102393.66;2071176;28;20198;-62
2022/12/01 00:51:31;;;;;;;7.90;7.10;;;;;;;7.10;100.00;102393.31;2071367;28;20191;-62
2022/12/01 00:52:32;;;;;;;9.67;7.87;;;;;;;6.61;100.00;102331.75;2071905;28;20251;-61
2022/12/01 00:53:32;;;;;;;7.70;6.90;;;;;;;7.05;100.00;102388.09;2071446;28;20616;-61
2022/12/01 00:54:33;;;;;;;10.77;7.50;;;;;;;6.75;100.00;102343.03;2071222;28;20205;-62
2022/12/01 00:55:33;;;;;;;10.30;7.77;;;;;;;7.02;100.00;102386.88;2071911;28;20189;-62
2022/12/01 00:56:34;;;;;;;9.47;7.23;;;;;;;7.01;100.00;102390.78;2071935;28;20256;-61
2022/12/01 00:57:34;;;;;;;8.73;7.67;;;;;;;7.01;100.00;102393.53;2071465;28;20190;-62
2022/12/01 00:58:34;;;;;;;8.80;7.60;;;;;;;7.06;100.00;102384.16;2071293;28;20201;-62
2022/12/01 00:59:35;;;;;;;8.97;7.67;;;;;;;6.85;100.00;102368.03;2071399;28;20201;-62
2022/12/01 01:00:38;;;;;;;8.00;7.10;;;;;;;6.97;100.00;102378.13;2070875;28;20189;-62
2022/12/01 01:01:39;;;;;;;9.13;8.05;;;;;;;6.64;100.00;102345.59;2071496;28;20195;-61
2022/12/01 01:02:39;;;;;;;8.90;7.70;;;;;;;6.87;100.00;102398.00;2071592;28;20190;-62
2022/12/01 01:03:40;;;;;;;9.13;7.50;;;;;;;6.92;100.00;102394.94;2071892;28;20806;-62
2022/12/01 01:04:40;;;;;;;9.23;8.03;;;;;;;6.95;100.00;102386.75;2071550;28;20209;-63
2022/12/01 01:05:42;;;;;;;9.63;7.90;;;;;;;6.92;100.00;102387.47;2071287;28;20269;-62
2022/12/01 01:06:43;;;;;;;10.05;8.07;;;;;;;6.87;100.00;102392.50;2071178;28;20221;-62
2022/12/01 01:07:43;;;;;;;9.33;7.30;;;;;;;6.66;100.00;102372.78;2071746;28;20204;-61
2022/12/01 01:08:43;;;;;;;9.80;8.00;;;;;;;6.82;100.00;102384.50;2071161;28;20198;-62
2022/12/01 01:09:44;;;;;;;9.53;8.07;;;;;;;6.84;100.00;102394.00;2071397;28;20193;-63
2022/12/01 01:10:46;;;;;;;10.30;8.23;;;;;;;6.86;100.00;102390.88;2071181;28;20192;-62
2022/12/01 01:11:47;;;;;;;9.65;8.18;;;;;;;6.82;100.00;102392.78;2070620;28;20201;-62
2022/12/01 01:12:47;;;;;;;10.10;8.13;;;;;;;6.88;100.00;102383.81;2071124;28;20232;-62
2022/12/01 01:13:48;;;;;;;9.50;8.43;;;;;;;6.92;100.00;102394.94;2071310;28;20204;-62
2022/12/01 01:14:48;;;;;;;12.17;8.23;;;;;;;6.85;100.00;102386.53;2071580;28;20694;-62
2022/12/01 01:16:12;;;;;;;9.47;7.90;;;;;;;6.73;100.00;102375.69;2071278;28;20670;-62
2022/12/01 01:17:13;;;;;;;10.02;8.48;;;;;;;6.75;100.00;102382.41;2071332;28;20200;-62
2022/12/01 01:18:13;;;;;;;10.40;8.37;;;;;;;6.71;100.00;102384.28;2071303;28;20254;-63
2022/12/01 01:19:15;;;;;;;9.47;7.97;;;;;;;6.75;100.00;102387.94;2071259;28;20260;-62
2022/12/01 01:20:16;;;;;;;9.30;8.25;;;;;;;6.71;100.00;102378.78;2070814;28;20284;-62
2022/12/01 01:21:19;;;;;;;10.00;8.47;;;;;;;6.75;100.00;102384.34;2071184;28;20185;-62
2022/12/01 01:22:20;;;;;;;10.18;8.48;;;;;;;6.53;100.00;102338.28;2071587;28;20190;-62
2022/12/01 01:23:20;;;;;;;10.07;8.70;;;;;;;6.74;100.00;102375.31;2071347;28;20239;-62
2022/12/01 01:24:21;;;;;;;10.57;8.13;;;;;;;6.73;100.00;102381.19;2072166;28;20221;-62
2022/12/01 01:25:21;;;;;;;10.27;8.03;;;;;;;6.71;100.00;102372.50;2071476;28;20193;-63
2022/12/01 01:26:24;;;;;;;8.70;7.80;;;;;;;6.80;100.00;102384.06;2071749;28;20302;-62
2022/12/01 01:27:25;;;;;;;10.77;8.30;;;;;;;6.78;100.00;102381.69;2071142;28;20205;-62
2022/12/01 01:28:25;;;;;;;12.93;8.60;;;;;;;6.70;100.00;102362.63;2070825;28;20186;-62
2022/12/01 01:29:26;;;;;;;11.27;8.00;;;;;;;6.85;100.00;102381.00;2071157;28;30464;-62
2022/12/01 01:30:26;;;;;;;9.63;7.73;;;;;;;6.38;100.00;102295.09;2070919;28;20667;-62
2022/12/01 01:31:28;;;;;;;9.57;7.83;;;;;;;6.85;100.00;102373.56;2070717;28;20194;-62
2022/12/01 01:32:29;;;;;;;9.30;7.68;;;;;;;6.83;100.00;102364.84;2072104;28;20220;-64
2022/12/01 01:33:29;;;;;;;8.90;7.80;;;;;;;6.93;100.00;102382.75;2071498;28;20190;-62
2022/12/01 01:34:30;;;;;;;10.13;8.33;;;;;;;6.90;100.00;102364.19;2071371;28;20276;-62
2022/12/01 01:35:30;;;;;;;9.90;8.43;;;;;;;6.92;100.00;102367.38;2071087;28;20574;-62
2022/12/01 01:36:31;;;;;;;9.87;8.03;;;;;;;6.95;100.00;102364.69;2071502;28;20280;-62
2022/12/01 01:37:31;;;;;;;8.00;7.20;;;;;;;6.95;100.00;102372.16;2071044;28;20197;-62
2022/12/01 01:38:32;;;;;;;8.43;7.53;;;;;;;6.86;100.00;102369.63;2070025;28;20217;-62
2022/12/01 01:39:33;;;;;;;10.70;7.95;;;;;;;6.70;100.00;102370.88;2071131;28;20815;-63
2022/12/01 01:40:33;;;;;;;8.73;7.77;;;;;;;6.29;100.00;102317.34;2071506;28;20248;-62
2022/12/01 01:41:34;;;;;;;10.00;8.37;;;;;;;6.64;100.00;102364.06;2071016;28;20201;-62
2022/12/01 01:42:34;;;;;;;9.23;8.23;;;;;;;6.50;100.00;102348.06;2071152;28;20229;-61
2022/12/01 01:43:40;;;;;;;10.27;8.53;;;;;;;6.03;100.00;102280.59;2071069;28;20277;-61
2022/12/01 01:44:56;;;;;;;9.50;7.95;;;;;;;6.62;100.00;102366.41;2071519;28;20193;-62
2022/12/01 01:45:57;;;;;;;9.93;8.50;;;;;;;6.66;100.00;102368.06;2071327;28;20276;-62
2022/12/01 01:46:57;;;;;;;11.17;8.70;;;;;;;6.69;100.00;102363.78;2071497;28;20197;-62
2022/12/01 01:47:59;;;;;;;9.83;8.67;;;;;;;6.00;100.00;102256.56;2070893;28;20197;-62
2022/12/01 01:49:10;;;;;;;11.55;9.23;;;;;;;6.19;100.00;102286.84;2071194;28;20604;-61
2022/12/01 01:50:13;;;;;;;9.82;8.20;;;;;;;6.74;100.00;102356.03;2070271;28;20176;-62
2022/12/01 01:51:18;;;;;;;10.80;8.85;;;;;;;6.34;100.00;102299.72;2070997;28;20198;-61
2022/12/01 01:52:20;;;;;;;11.65;9.30;;;;;;;6.73;100.00;102365.47;2071342;28;20193;-61
2022/12/01 01:53:21;;;;;;;10.48;8.70;;;;;;;6.72;100.00;102357.56;2070845;28;20193;-62
2022/12/01 01:54:27;;;;;;;11.13;9.83;;;;;;;6.71;100.00;102361.47;2071107;28;20216;-61
2022/12/01 01:55:31;;;;;;;12.30;9.65;;;;;;;6.73;100.00;102354.44;2070366;28;20448;-62
2022/12/01 01:56:33;;;;;;;11.05;9.13;;;;;;;6.75;100.00;102360.38;2070576;28;20269;-62
2022/12/01 01:57:34;;;;;;;10.90;8.75;;;;;;;6.78;100.00;102356.09;2071052;28;20209;-62
2022/12/01 01:58:36;;;;;;;11.27;9.05;;;;;;;6.79;100.00;102355.72;2071120;28;20559;-61
2022/12/01 01:59:44;;;;;;;12.98;9.73;;;;;;;6.67;100.00;102327.53;2070867;28;20912;-63
2022/12/01 02:00:45;;;;;;;10.60;8.67;;;;;;;6.88;100.00;102361.78;2070874;28;20243;-61
2022/12/01 02:01:56;;;;;;;10.33;9.10;;;;;;;6.86;100.00;102355.84;2071229;28;20463;-62
2022/12/01 02:02:56;;;;;;;10.98;8.88;;;;;;;6.86;100.00;102361.38;2070424;28;20263;-63
2022/12/01 02:03:57;;;;;;;10.80;9.03;;;;;;;6.13;100.00;102233.22;2070865;28;20276;-62
2022/12/01 02:05:01;;;;;;;11.27;9.23;;;;;;;6.89;100.00;102351.56;2071315;28;20181;-62
2022/12/01 02:06:01;;;;;;;11.48;9.40;;;;;;;6.80;100.00;102346.28;2070995;28;20234;-62
2022/12/01 02:07:03;;;;;;;10.73;8.83;;;;;;;6.84;100.00;102351.88;2071585;28;20189;-62
2022/12/01 02:08:04;;;;;;;9.75;8.75;;;;;;;6.30;100.00;102266.63;2070875;28;20189;-63
2022/12/01 02:09:05;;;;;;;10.57;8.93;;;;;;;6.86;100.00;102347.59;2071311;28;20639;-61
2022/12/01 02:10:08;;;;;;;10.83;9.23;;;;;;;6.90;100.00;102347.66;2070778;28;20602;-63
2022/12/01 02:11:17;;;;;;;10.82;9.02;;;;;;;6.90;100.00;102351.22;2071092;28;20188;-62
2022/12/01 02:12:47;;;;;;;11.00;9.13;;;;;;;6.85;100.00;102348.75;2070986;28;20654;-63
2022/12/01 02:14:17;;;;;;;10.45;8.77;;;;;;;6.86;100.00;102347.59;2070842;28;20200;-61
2022/12/01 02:15:26;;;;;;;10.88;9.23;;;;;;;6.91;100.00;102347.28;2070950;28;20181;-61
2022/12/01 02:16:49;;;;;;;11.13;9.38;;;;;;;6.88;100.00;102339.72;2071114;28;20186;-63
2022/12/01 02:18:29;;;;;;;11.93;9.55;;;;;;;6.73;100.00;102339.84;2069955;28;20182;-62
2022/12/01 02:19:52;;;;;;;10.97;9.23;;;;;;;6.72;100.00;102338.25;2057072;28;20201;-61
2022/12/01 02:21:09;;;;;;;12.85;9.45;;;;;;;6.77;100.00;102341.50;2070377;28;20802;-62
2022/12/01 02:22:24;;;;;;;11.60;9.52;;;;;;;6.75;100.00;102343.03;2071658;28;20264;-62
2022/12/01 02:23:43;;;;;;;10.95;9.38;;;;;;;6.69;100.00;102338.97;2070172;28;20271;-62
2022/12/01 02:25:00;;;;;;;10.93;8.98;;;;;;;6.72;100.00;102344.56;2070673;28;20189;-62
2022/12/01 02:26:25;;;;;;;11.07;9.55;;;;;;;6.74;100.00;102342.25;2070943;28;20605;-62
2022/12/01 02:27:40;;;;;;;11.88;9.50;;;;;;;6.75;100.00;102349.34;2070903;28;20193;-63
2022/12/01 02:29:02;;;;;;;11.95;9.50;;;;;;;6.77;100.00;102349.78;2071018;28;20185;-62
2022/12/01 02:30:41;;;;;;;11.95;9.73;;;;;;;6.82;100.00;102348.69;2070971;28;20197;-62
2022/12/01 02:32:08;;;;;;;10.60;9.32;;;;;;;6.82;100.00;102341.19;2070173;28;20179;-61
2022/12/01 02:33:22;;;;;;;11.50;8.95;;;;;;;6.82;100.00;102346.72;2070872;28;20194;-62
2022/12/01 02:34:49;;;;;;;12.82;9.43;;;;;;;6.86;100.00;102347.59;2070751;28;20193;-62
2022/12/01 02:36:18;;;;;;;11.40;9.10;;;;;;;6.88;100.00;102347.22;2069989;28;20196;-62
2022/12/01 02:37:37;;;;;;;11.38;8.80;;;;;;;6.86;100.00;102339.31;2070873;28;20181;-62
2022/12/01 02:39:04;;;;;;;11.63;9.70;;;;;;;6.84;100.00;102341.66;2070637;28;20612;-62
2022/12/01 02:40:10;;;;;;;10.20;8.82;;;;;;;6.85;100.00;102345.19;2045739;29;20265;-61
2022/12/01 02:41:40;;;;;;;11.25;8.90;;;;;;;6.88;100.00;102339.72;2070843;28;20194;-62
2022/12/01 02:43:02;;;;;;;11.75;9.15;;;;;;;6.87;100.00;102349.16;2065876;28;20739;-62
2022/12/01 02:44:21;;;;;;;11.80;9.35;;;;;;;6.88;100.00;102338.97;2070378;28;21056;-62
2022/12/01 02:45:53;;;;;;;9.98;8.80;;;;;;;6.90;100.00;102344.88;2070727;28;20177;-62
2022/12/01 02:47:20;;;;;;;10.45;9.10;;;;;;;6.91;100.00;102344.53;2070985;28;20186;-62
2022/12/01 02:48:28;;;;;;;11.57;9.32;;;;;;;6.38;100.00;102260.09;2067940;28;20197;-62
2022/12/01 02:49:37;;;;;;;13.60;9.30;;;;;;;6.91;100.00;102341.78;2070748;28;20280;-62
2022/12/01 02:50:40;;;;;;;11.02;9.02;;;;;;;6.91;100.00;102336.25;2070748;28;20639;-62
2022/12/01 02:51:45;;;;;;;10.73;9.07;;;;;;;6.24;100.00;102232.28;2070014;28;20186;-61
2022/12/01 02:52:46;;;;;;;10.63;8.95;;;;;;;6.88;100.00;102339.72;2071233;28;20194;-62
2022/12/01 02:53:48;;;;;;;11.30;9.07;;;;;;;6.90;100.00;102336.63;2070799;28;20200;-62
2022/12/01 02:54:48;;;;;;;11.60;9.35;;;;;;;6.92;100.00;102328.81;2072107;28;20272;-62
2022/12/01 02:55:55;;;;;;;11.20;9.37;;;;;;;6.63;100.00;102297.19;2072404;28;20190;-62
2022/12/01 02:56:55;;;;;;;11.13;9.45;;;;;;;6.90;100.00;102333.88;2072682;28;20209;-62
2022/12/01 02:57:56;;;;;;;10.77;9.30;;;;;;;6.16;100.00;102211.28;2071986;28;20185;-62
2022/12/01 02:58:56;;;;;;;11.50;9.00;;;;;;;6.83;100.00;102320.75;2073159;28;20244;-63
2022/12/01 02:59:58;;;;;;;12.30;9.03;;;;;;;6.99;100.00;102338.00;2072448;28;20200;-61
2022/12/01 03:01:31;;;;;;;11.82;9.25;;;;;;;7.00;100.00;102330.50;2070352;28;20181;-63
2022/12/01 03:02:47;;;;;;;12.57;9.60;;;;;;;6.35;100.00;102238.78;2036191;29;20310;-62
2022/12/01 03:04:04;;;;;;;12.25;9.55;;;;;;;6.91;100.00;102330.75;2071513;28;20170;-63
2022/12/01 03:05:29;;;;;;;10.63;9.20;;;;;;;6.92;100.00;102331.56;2072203;28;20200;-63
2022/12/01 03:06:49;;;;;;;11.35;9.40;;;;;;;6.21;100.00;102213.72;2072875;28;20648;-62
2022/12/01 03:08:12;;;;;;;12.52;9.32;;;;;;;6.96;100.00;102332.41;2072239;28;20224;-61
2022/12/01 03:09:57;;;;;;;12.18;9.65;;;;;;;6.94;100.00;102329.22;2072758;28;20721;-61
2022/12/01 03:10:59;;;;;;;10.55;8.52;;;;;;;6.94;100.00;102326.47;2071307;28;20188;-62
2022/12/01 03:12:22;;;;;;;10.75;8.93;;;;;;;6.94;100.00;102320.94;2072166;28;20244;-62
2022/12/01 03:13:32;;;;;;;10.40;9.10;;;;;;;6.95;100.00;102330.81;2071518;28;20193;-62
2022/12/01 03:14:41;;;;;;;12.07;9.88;;;;;;;6.99;100.00;102326.97;2072567;28;20582;-62
2022/12/01 03:16:02;;;;;;;12.00;9.13;;;;;;;6.93;100.00;102322.13;2072259;28;20671;-62
2022/12/01 03:17:08;;;;;;;11.93;9.75;;;;;;;6.46;100.00;102253.56;2072487;28;20189;-62
2022/12/01 03:18:08;;;;;;;11.23;9.55;;;;;;;6.98;100.00;102328.09;2072141;28;20638;-62
2022/12/01 03:19:20;;;;;;;11.77;9.60;;;;;;;7.02;100.00;102328.19;2072410;28;20263;-62
2022/12/01 03:20:30;;;;;;;13.25;9.88;;;;;;;6.46;100.00;102248.03;2070911;28;21422;-62
2022/12/01 03:21:41;;;;;;;12.73;9.02;;;;;;;6.95;100.00;102319.78;2072056;28;20187;-61
2022/12/01 03:22:49;;;;;;;10.90;8.77;;;;;;;6.99;100.00;102328.91;2072552;28;20196;-62
2022/12/01 03:23:54;;;;;;;13.02;10.10;;;;;;;6.20;100.00;102203.13;2072459;28;20622;-62
2022/12/01 03:24:57;;;;;;;12.27;9.50;;;;;;;6.81;100.00;102305.78;2072478;28;20239;-63
2022/12/01 03:26:01;;;;;;;11.95;9.65;;;;;;;6.89;100.00;102324.81;2072331;28;20197;-61
2022/12/01 03:27:04;;;;;;;11.18;9.55;;;;;;;6.93;100.00;102327.63;2072370;28;20188;-62
2022/12/01 03:28:08;;;;;;;11.77;9.75;;;;;;;6.50;100.00;102270.13;2072052;28;20182;-62
2022/12/01 03:29:13;;;;;;;11.88;9.85;;;;;;;6.94;100.00;102331.97;2071382;28;20691;-61
2022/12/01 03:30:15;;;;;;;12.88;9.60;;;;;;;6.98;100.00;102330.88;2071708;28;20265;-62
2022/12/01 03:31:24;;;;;;;11.88;10.00;;;;;;;6.67;100.00;102277.94;2072776;28;20185;-61
2022/12/01 03:32:31;;;;;;;12.85;10.10;;;;;;;7.02;100.00;102333.72;2072678;28;20212;-62
2022/12/01 03:33:42;;;;;;;11.73;9.40;;;;;;;7.03;100.00;102341.59;2071565;28;20189;-61
2022/12/01 03:35:03;;;;;;;12.27;10.25;;;;;;;7.01;100.00;102337.59;2072207;28;20691;-62
2022/12/01 03:36:21;;;;;;;11.45;9.43;;;;;;;5.96;100.00;102179.47;2071493;28;20216;-62
2022/12/01 03:37:52;;;;;;;11.98;9.93;;;;;;;6.93;100.00;102336.69;2070710;28;20602;-63
2022/12/01 03:39:01;;;;;;;13.30;10.57;;;;;;;6.84;100.00;102327.88;2070984;28;20204;-62
2022/12/01 03:40:07;;;;;;;14.18;10.35;;;;;;;6.95;100.00;102341.84;2072241;28;20211;-62
2022/12/01 03:41:13;;;;;;;12.27;9.70;;;;;;;6.96;100.00;102340.66;2072162;28;20204;-62
2022/12/01 03:42:26;;;;;;;12.27;10.02;;;;;;;6.91;100.00;102340.97;2072122;28;20205;-62
2022/12/01 03:43:33;;;;;;;12.45;10.20;;;;;;;6.97;100.00;102337.53;2072024;28;20249;-62
2022/12/01 03:44:48;;;;;;;12.18;9.95;;;;;;;6.90;100.00;102339.38;2072600;28;20189;-62
2022/12/01 03:46:00;;;;;;;12.88;10.50;;;;;;;6.89;100.00;102346.88;2071408;28;20535;-62
2022/12/01 03:47:10;;;;;;;12.57;10.07;;;;;;;6.89;100.00;102341.34;2072409;28;20190;-62
2022/12/01 03:48:10;;;;;;;12.68;10.23;;;;;;;6.89;100.00;102332.28;2071900;28;20671;-62
2022/12/01 03:49:14;;;;;;;12.93;10.30;;;;;;;6.90;100.00;102344.88;2072175;28;20189;-61
2022/12/01 03:50:17;;;;;;;13.55;10.63;;;;;;;6.89;100.00;102340.53;2071741;28;20225;-61
2022/12/01 03:51:30;;;;;;;12.75;10.85;;;;;;;6.92;100.00;102337.06;2072216;28;20186;-61
2022/12/01 03:52:59;;;;;;;13.13;10.60;;;;;;;6.92;100.00;102337.06;2071177;28;20610;-62
2022/12/01 03:54:11;;;;;;;12.30;10.25;;;;;;;6.95;100.00;102339.06;2072331;28;20586;-63
2022/12/01 03:55:19;;;;;;;12.93;10.43;;;;;;;6.87;100.00;102334.63;2071701;28;20232;-62
2022/12/01 03:56:24;;;;;;;15.93;10.45;;;;;;;6.83;100.00;102340.03;2072001;28;20198;-62
2022/12/01 03:57:30;;;;;;;12.23;10.45;;;;;;;6.82;100.00;102337.66;2072141;28;20196;-61
2022/12/01 03:58:40;;;;;;;13.63;10.57;;;;;;;6.84;100.00;102338.09;2072120;28;20710;-62
2022/12/01 03:59:44;;;;;;;13.32;10.55;;;;;;;5.90;100.00;102200.16;2071802;28;20236;-62
2022/12/01 04:00:48;;;;;;;14.10;10.75;;;;;;;6.81;100.00;102334.09;2071549;28;20185;-61
2022/12/01 04:01:49;;;;;;;13.98;11.55;;;;;;;6.83;100.00;102347.53;2071817;28;20260;-62
2022/12/01 04:02:55;;;;;;;14.83;11.33;;;;;;;6.67;100.00;102342.09;2072119;28;20182;-61
2022/12/01 04:04:02;;;;;;;14.88;10.68;;;;;;;6.86;100.00;102333.81;2071733;28;20243;-62
2022/12/01 04:05:05;;;;;;;13.38;11.43;;;;;;;6.89;100.00;102333.09;2071771;28;20178;-61
2022/12/01 04:06:05;;;;;;;13.88;10.90;;;;;;;6.89;100.00;102344.09;2071198;28;20679;-63
2022/12/01 04:07:06;;;;;;;12.80;10.60;;;;;;;6.41;100.00;102269.59;2072526;28;20665;-62
2022/12/01 04:08:07;;;;;;;13.63;10.10;;;;;;;6.84;100.00;102346.34;2071701;28;20236;-62
2022/12/01 04:09:07;;;;;;;11.80;10.13;;;;;;;6.86;100.00;102339.31;2071149;28;20276;-62
2022/12/01 04:10:08;;;;;;;12.17;10.10;;;;;;;6.87;100.00;102337.38;2071590;28;20208;-61
2022/12/01 04:12:31;;;;;;;13.50;9.80;;;;;;;6.97;100.00;102334.78;2072041;28;20212;-62
2022/12/01 04:13:32;;;;;;;13.45;10.63;;;;;;;6.92;100.00;102337.06;2070824;28;20571;-61
2022/12/01 04:14:32;;;;;;;14.17;10.97;;;;;;;5.86;100.00;102176.47;2072058;28;20221;-61
2022/12/01 04:15:33;;;;;;;12.00;9.77;;;;;;;7.00;100.00;102347.03;2071661;28;20201;-62
2022/12/01 04:16:33;;;;;;;12.10;10.07;;;;;;;7.00;100.00;102358.88;2072019;28;20193;-62
2022/12/01 04:17:34;;;;;;;13.70;11.00;;;;;;;7.01;100.00;102343.94;2071430;28;20262;-61
2022/12/01 04:18:34;;;;;;;14.10;11.10;;;;;;;6.87;100.00;102327.13;2072269;28;20220;-61
2022/12/01 04:19:35;;;;;;;13.77;10.03;;;;;;;6.99;100.00;102339.94;2072044;28;20193;-62
2022/12/01 04:20:35;;;;;;;12.80;10.53;;;;;;;7.04;100.00;102347.91;2071407;28;20197;-62
2022/12/01 04:21:36;;;;;;;14.90;10.73;;;;;;;7.02;100.00;102342.75;2071513;28;20202;-61
2022/12/01 04:22:36;;;;;;;12.40;10.17;;;;;;;7.04;100.00;102358.94;2072420;28;20466;-62
2022/12/01 04:24:55;;;;;;;13.13;10.38;;;;;;;7.07;100.00;102347.19;2071686;28;20576;-62
2022/12/01 04:26:01;;;;;;;13.00;10.50;;;;;;;7.07;100.00;102352.69;2071990;28;20195;-61
2022/12/01 04:27:02;;;;;;;13.50;10.60;;;;;;;6.92;100.00;102339.81;2071594;28;20189;-62
2022/12/01 04:28:02;;;;;;;12.73;10.03;;;;;;;7.06;100.00;102357.41;2071630;28;20178;-61
2022/12/01 04:29:09;;;;;;;12.37;10.03;;;;;;;7.08;100.00;102354.28;2072460;28;20648;-62
2022/12/01 04:32:06;;;;;;;11.73;8.77;;;;;;;7.07;100.00;102358.22;2065072;28;20570;-62
2022/12/01 04:33:07;;;;;;;10.80;8.73;;;;;;;7.03;100.00;102360.88;2070709;28;20565;-62
2022/12/01 04:34:09;;;;;;;10.47;8.40;;;;;;;7.04;100.00;102362.50;2069872;28;20687;-63
2022/12/01 04:35:11;;;;;;;10.63;8.65;;;;;;;6.43;100.00;102281.84;2079041;28;20224;-63
2022/12/01 04:36:11;;;;;;;10.77;8.73;;;;;;;6.96;100.00;102357.19;2079078;28;20602;-62
2022/12/01 04:37:12;;;;;;;10.27;8.53;;;;;;;7.04;100.00;102358.94;2070771;28;20182;-62
2022/12/01 04:38:12;;;;;;;10.00;8.00;;;;;;;7.04;100.00;102358.94;2071339;28;20220;-62
2022/12/01 04:39:13;;;;;;;10.13;8.73;;;;;;;7.02;100.00;102364.03;2071752;28;20660;-62
2022/12/01 04:40:13;;;;;;;9.33;8.07;;;;;;;6.98;100.00;102363.16;2070796;28;20189;-61
2022/12/01 04:41:14;;;;;;;11.50;9.60;;;;;;;6.89;100.00;102346.06;2071751;28;20263;-61
2022/12/01 04:42:14;;;;;;;11.33;9.10;;;;;;;6.99;100.00;102362.00;2071945;28;20688;-62
2022/12/01 04:43:15;;;;;;;11.40;7.60;;;;;;;6.97;100.00;102365.09;2071741;28;20198;-61
2022/12/01 04:44:15;;;;;;;10.63;7.60;;;;;;;6.97;100.00;102358.81;2071812;28;20632;-62
2022/12/01 04:45:16;;;;;;;10.83;8.23;;;;;;;6.97;100.00;102364.34;2071743;28;20213;-61
2022/12/01 04:46:16;;;;;;;10.20;8.10;;;;;;;6.98;100.00;102360.41;2071650;28;20658;-62
2022/12/01 04:47:16;;;;;;;10.00;7.73;;;;;;;7.00;100.00;102358.88;2071684;28;20194;-62
2022/12/01 04:48:17;;;;;;;11.37;8.70;;;;;;;6.99;100.00;102365.56;2070917;28;20629;-63
2022/12/01 04:49:19;;;;;;;9.33;8.00;;;;;;;7.02;100.00;102356.53;2071660;28;20189;-62
2022/12/01 04:50:19;;;;;;;10.27;8.38;;;;;;;6.14;100.00;102224.63;2070398;28;20193;-61
2022/12/01 04:51:21;;;;;;;10.80;8.87;;;;;;;7.00;100.00;102358.88;2071357;28;20204;-61
2022/12/01 04:52:21;;;;;;;11.15;9.27;;;;;;;6.99;100.00;102362.81;2071624;28;20186;-62
2022/12/01 04:53:22;;;;;;;11.23;9.00;;;;;;;7.03;100.00;102357.34;2071076;28;20293;-63
2022/12/01 04:54:22;;;;;;;11.37;9.73;;;;;;;6.75;100.00;102312.72;2071751;28;20232;-62
2022/12/01 04:55:24;;;;;;;11.00;9.03;;;;;;;7.04;100.00;102364.44;2071173;28;20315;-61
2022/12/01 04:56:25;;;;;;;12.43;9.25;;;;;;;6.97;100.00;102350.56;2072676;28;20391;-61
2022/12/01 04:57:25;;;;;;;12.23;10.20;;;;;;;6.94;100.00;102345.75;2071356;28;20644;-63
2022/12/01 04:58:30;;;;;;;10.63;8.93;;;;;;;7.01;100.00;102354.94;2071498;28;20341;-62
2022/12/01 04:59:30;;;;;;;10.95;9.63;;;;;;;7.01;100.00;102354.94;2071967;28;20204;-62
2022/12/01 05:00:32;;;;;;;11.97;10.53;;;;;;;7.01;100.00;102365.16;2071379;28;20204;-61
2022/12/01 05:01:32;;;;;;;13.20;10.52;;;;;;;7.02;100.00;102361.28;2069815;28;20224;-62
2022/12/01 05:02:33;;;;;;;12.73;10.40;;;;;;;6.20;100.00;102236.16;2070734;28;20202;-62
2022/12/01 05:03:42;;;;;;;13.33;9.80;;;;;;;7.04;100.00;102357.00;2070451;28;20193;-62
2022/12/01 05:04:46;;;;;;;11.63;9.77;;;;;;;7.03;100.00;102349.06;2071734;28;20188;-65
2022/12/01 05:05:47;;;;;;;11.30;9.20;;;;;;;7.03;100.00;102355.38;2068615;28;20200;-62
2022/12/01 05:06:47;;;;;;;12.40;10.13;;;;;;;6.99;100.00;102362.81;2069808;28;20647;-62
2022/12/01 05:07:47;;;;;;;13.27;9.73;;;;;;;7.01;100.00;102356.91;2068073;28;20240;-61